Detall de PIREP

Printer-friendly versionPDF version

[2013/02/24 15:49:00]
Flight IATA:CT1004
Pilot Number:012
Company ICAO:CAT
Aircraft Type:B463/A
PAX:0
Aircraft Registration:CARGO
Departing Airport: ELLX
Destination Airport: LEBL
Alternate Airport:LEPA
Online: VATSIM
Route:GTQ UN852 DIVKO UN975 BISBA
Flight Level:F290
No Slew and time accel
No pause
Crash detect
Detect pilot in Cockpit between each 30 and 45 minutes
15:49 Zero fuel Weight: 80400 Lbs, Fuel Weight: 16294 Lbs
15:49 VATSIM:ELLX 241520Z 02008KT 320V050 1500 R06/P1500VP1500N -SN BR SCT005 BKN010 M01/M02 Q1012 RESN 062///72 NOSIG
15:49 VATSIM:LEBL 241530Z 11007KT 050V170 9999 FEW030 12/M07 Q1010 NOSIG
15:49 VOICE CATALONIAN / MWC 2013 BARCELONA CHARTER
16:00 Parking Brakes off
16:05 Take-off
16:05 Take off Weight: 96193 Lbs
16:05 Wind: 355º @ 008 Knots Heading: 055º
16:05 POS N49º 37´ 29´´ E006º 12´ 21´´
16:05 Flaps:2 at 143 Knots
16:05 Gear Up: 143 Knots
16:06 Flaps:1 at 162 Knots
16:07 Flaps:0 at 215 Knots
16:17 TOC
16:17 Fuel Weight: 13799 Lb
16:20 Wind:090º@018 Knots Heading: 179º Ground Speed: 413 Knots Altitude 28963 ft
16:35 Wind:073º@021 Knots Heading: 218º Ground Speed: 420 Knots Altitude 28900 ft
16:50 Wind:058º@018 Knots Heading: 192º Ground Speed: 424 Knots Altitude 28907 ft
17:05 Wind:338º@023 Knots Heading: 203º Ground Speed: 432 Knots Altitude 28805 ft
17:19 TOD
17:19 Fuel Weight: 8009 Lb
17:20 Wind:328º@043 Knots Heading: 226º Ground Speed: 427 Knots Altitude 28618 ft
17:35 Wind:045º@010 Knots Heading: 250º Ground Speed: 223 Knots Altitude 2322 ft
17:35 Flaps:1 at 195 Knots
17:36 Flaps:2 at 156 Knots
17:36 Gear Down: 156 Knots
17:37 Flaps:3 at 144 Knots
17:37 Flaps:4 at 143 Knots
17:38 TouchDown:Rate -350 ft/min Speed: 116 Knots
17:38 VATSIM:LEBL 241700Z 07014KT 9999 FEW025 09/M02 Q1011 NOSIG
17:38 Land
17:38 Wind:072º@014 Knots
17:38 Heading: 247º
17:38 Flight Duration: 01:33
17:38 Landing Weight: 87721 Lbs
17:38 POS N41º 18´ 00´´ E002º 05´ 16´´
17:41 Parking brakes on
17:41 Block to Block Duration: 01:41
17:41 Final Fuel: 7224 Lbls
17:41 Spent Fuel: 9069 Lbls
17:41 Flight Length: 585 NM
17:41 TOD Land Length: 92 NM

Exportar CSV

Powered by Drupal - Modified by Danger4k